N6534RT LFMK-LFML
Flight info
| Callsign | N6534RT |
|---|---|
| Flight time | 0h 37m |
| Altitude | 25000 |
| Route | FJR |
| Aircraft | C750/M-SBDE3FGHRWXY/S |
Departure
| Time | 2026-05-04 19:38 |
|---|---|
| Airport | Carcassonne Salvaza Airport (LFMK) |
Arrival
| Time | 2026-05-04 20:15 |
|---|---|
| Airport | Marseille Provence Airport (LFML) |
| Time | Latitude | Longitude | Altitude | Speed | Heading |
|---|---|---|---|---|---|
| 2026-05-04 19:21 | 43.21417 | 2.30533 | 415 ft | 0 kts | 3° |
| 2026-05-04 19:35 | 43.21422 | 2.30535 | 424 ft | 2 kts | 21° |
| 2026-05-04 19:35 | 43.21437 | 2.30574 | 422 ft | 9 kts | 64° |
| 2026-05-04 19:35 | 43.21464 | 2.30697 | 422 ft | 18 kts | 75° |
| 2026-05-04 19:35 | 43.21488 | 2.30909 | 419 ft | 25 kts | 97° |
| 2026-05-04 19:36 | 43.21465 | 2.31198 | 415 ft | 36 kts | 95° |
| 2026-05-04 19:36 | 43.21440 | 2.31492 | 412 ft | 13 kts | 95° |
| 2026-05-04 19:36 | 43.21434 | 2.31594 | 411 ft | 7 kts | 84° |
| 2026-05-04 19:36 | 43.21454 | 2.31616 | 411 ft | 3 kts | 21° |
| 2026-05-04 19:37 | 43.21473 | 2.31621 | 412 ft | 3 kts | 3° |
| 2026-05-04 19:37 | 43.21511 | 2.31608 | 420 ft | 9 kts | 315° |
| 2026-05-04 19:37 | 43.21531 | 2.31484 | 412 ft | 27 kts | 276° |
| 2026-05-04 19:37 | 43.21593 | 2.30710 | 429 ft | 128 kts | 275° |
| 2026-05-04 19:38 | 43.21687 | 2.29476 | 1136 ft | 122 kts | 273° |
| 2026-05-04 19:38 | 43.21904 | 2.28368 | 2004 ft | 128 kts | 299° |
| 2026-05-04 19:38 | 43.22532 | 2.27422 | 2713 ft | 140 kts | 318° |
| 2026-05-04 19:38 | 43.23413 | 2.26784 | 3476 ft | 150 kts | 336° |
| 2026-05-04 19:39 | 43.24437 | 2.26564 | 4409 ft | 146 kts | 355° |
| 2026-05-04 19:39 | 43.25402 | 2.26902 | 5334 ft | 146 kts | 24° |
| 2026-05-04 19:39 | 43.26195 | 2.27912 | 5882 ft | 172 kts | 47° |
| 2026-05-04 19:39 | 43.26914 | 2.29496 | 5820 ft | 220 kts | 61° |
| 2026-05-04 19:40 | 43.27432 | 2.31603 | 6145 ft | 234 kts | 77° |
| 2026-05-04 19:40 | 43.27567 | 2.33812 | 7337 ft | 231 kts | 92° |
| 2026-05-04 19:40 | 43.27304 | 2.35962 | 8610 ft | 227 kts | 102° |
| 2026-05-04 19:40 | 43.27018 | 2.38036 | 10025 ft | 214 kts | 101° |
| 2026-05-04 19:41 | 43.26763 | 2.40065 | 10910 ft | 226 kts | 99° |
| 2026-05-04 19:41 | 43.26672 | 2.42394 | 11017 ft | 263 kts | 88° |
| 2026-05-04 19:41 | 43.27063 | 2.45016 | 11199 ft | 296 kts | 71° |
| 2026-05-04 19:41 | 43.27835 | 2.47688 | 11921 ft | 307 kts | 69° |
| 2026-05-04 19:42 | 43.28537 | 2.50512 | 12631 ft | 319 kts | 75° |
| 2026-05-04 19:42 | 43.29097 | 2.53506 | 13367 ft | 329 kts | 77° |
| 2026-05-04 19:42 | 43.29676 | 2.56604 | 13984 ft | 343 kts | 76° |
| 2026-05-04 19:42 | 43.30367 | 2.59876 | 14018 ft | 372 kts | 74° |
| 2026-05-04 19:43 | 43.31131 | 2.63394 | 14023 ft | 398 kts | 75° |
| 2026-05-04 19:43 | 43.31906 | 2.67164 | 14032 ft | 414 kts | 76° |
| 2026-05-04 19:43 | 43.32628 | 2.70765 | 14589 ft | 374 kts | 76° |
| 2026-05-04 19:43 | 43.33334 | 2.74212 | 15258 ft | 379 kts | 76° |
| 2026-05-04 19:44 | 43.34059 | 2.77727 | 15944 ft | 386 kts | 76° |
| 2026-05-04 19:44 | 43.34794 | 2.81314 | 16652 ft | 393 kts | 76° |
| 2026-05-04 19:44 | 43.35535 | 2.84955 | 17374 ft | 397 kts | 77° |
| 2026-05-04 19:44 | 43.36284 | 2.88641 | 18126 ft | 403 kts | 77° |
| 2026-05-04 19:45 | 43.37044 | 2.92374 | 18793 ft | 408 kts | 77° |
| 2026-05-04 19:45 | 43.37810 | 2.96143 | 19458 ft | 412 kts | 77° |
| 2026-05-04 19:45 | 43.38581 | 2.99956 | 20141 ft | 416 kts | 77° |
| 2026-05-04 19:45 | 43.39359 | 3.03804 | 20841 ft | 419 kts | 77° |
| 2026-05-04 19:46 | 43.40144 | 3.07691 | 21554 ft | 423 kts | 77° |
| 2026-05-04 19:46 | 43.40932 | 3.11607 | 22284 ft | 427 kts | 77° |
| 2026-05-04 19:46 | 43.41726 | 3.15560 | 23042 ft | 430 kts | 77° |
| 2026-05-04 19:46 | 43.42524 | 3.19539 | 23748 ft | 435 kts | 77° |
| 2026-05-04 19:47 | 43.43332 | 3.23571 | 24396 ft | 439 kts | 77° |
| 2026-05-04 19:47 | 43.44146 | 3.27649 | 24948 ft | 448 kts | 77° |
| 2026-05-04 19:47 | 43.44984 | 3.31867 | 24963 ft | 467 kts | 77° |
| 2026-05-04 19:47 | 43.45856 | 3.36254 | 24976 ft | 483 kts | 77° |
| 2026-05-04 19:48 | 43.46757 | 3.40778 | 24989 ft | 496 kts | 77° |
| 2026-05-04 19:48 | 43.47670 | 3.45377 | 24983 ft | 500 kts | 77° |
| 2026-05-04 19:48 | 43.48584 | 3.50003 | 24985 ft | 502 kts | 77° |
| 2026-05-04 19:48 | 43.49501 | 3.54664 | 24993 ft | 504 kts | 77° |
| 2026-05-04 19:49 | 43.50418 | 3.59324 | 24995 ft | 505 kts | 77° |
| 2026-05-04 19:49 | 43.51337 | 3.64010 | 25009 ft | 507 kts | 77° |
| 2026-05-04 19:49 | 43.52255 | 3.68698 | 25005 ft | 507 kts | 77° |
| 2026-05-04 19:49 | 43.53172 | 3.73395 | 24999 ft | 508 kts | 77° |
| 2026-05-04 19:50 | 43.54088 | 3.78098 | 24994 ft | 509 kts | 78° |
| 2026-05-04 19:50 | 43.55002 | 3.82805 | 24994 ft | 510 kts | 78° |
| 2026-05-04 19:50 | 43.55828 | 3.87546 | 24979 ft | 507 kts | 82° |
| 2026-05-04 19:50 | 43.56167 | 3.92367 | 24988 ft | 504 kts | 91° |
| 2026-05-04 19:51 | 43.56037 | 3.97114 | 24624 ft | 481 kts | 99° |
| 2026-05-04 19:51 | 43.55469 | 4.01452 | 23940 ft | 453 kts | 107° |
| 2026-05-04 19:51 | 43.54557 | 4.05472 | 23211 ft | 425 kts | 114° |
| 2026-05-04 19:51 | 43.53355 | 4.09145 | 22413 ft | 407 kts | 121° |
| 2026-05-04 19:52 | 43.52033 | 4.12513 | 21676 ft | 400 kts | 122° |
| 2026-05-04 19:52 | 43.50727 | 4.15884 | 20953 ft | 397 kts | 122° |
| 2026-05-04 19:52 | 43.49433 | 4.19261 | 20258 ft | 410 kts | 122° |
| 2026-05-04 19:52 | 43.48033 | 4.22853 | 20017 ft | 438 kts | 122° |
| 2026-05-04 19:53 | 43.46562 | 4.26628 | 20016 ft | 452 kts | 122° |
| 2026-05-04 19:53 | 43.45089 | 4.30447 | 20011 ft | 455 kts | 122° |
| 2026-05-04 19:53 | 43.43606 | 4.34321 | 20013 ft | 457 kts | 121° |
| 2026-05-04 19:53 | 43.42162 | 4.38118 | 19680 ft | 436 kts | 122° |
| 2026-05-04 19:54 | 43.40814 | 4.41719 | 19121 ft | 409 kts | 121° |
| 2026-05-04 19:54 | 43.39564 | 4.45099 | 18576 ft | 388 kts | 121° |
| 2026-05-04 19:54 | 43.38362 | 4.48369 | 18012 ft | 379 kts | 121° |
| 2026-05-04 19:54 | 43.37176 | 4.51600 | 17415 ft | 380 kts | 121° |
| 2026-05-04 19:55 | 43.35979 | 4.54845 | 16848 ft | 380 kts | 121° |
| 2026-05-04 19:55 | 43.34781 | 4.58079 | 16290 ft | 380 kts | 121° |
| 2026-05-04 19:55 | 43.33587 | 4.61300 | 15741 ft | 377 kts | 121° |
| 2026-05-04 19:55 | 43.32413 | 4.64461 | 15211 ft | 376 kts | 121° |
| 2026-05-04 19:56 | 43.31230 | 4.67642 | 14667 ft | 373 kts | 121° |
| 2026-05-04 19:56 | 43.30051 | 4.70812 | 14092 ft | 372 kts | 121° |
| 2026-05-04 19:56 | 43.28880 | 4.73959 | 13483 ft | 371 kts | 121° |
| 2026-05-04 19:56 | 43.27712 | 4.77096 | 12790 ft | 367 kts | 121° |
| 2026-05-04 19:57 | 43.26558 | 4.80181 | 12136 ft | 361 kts | 121° |
| 2026-05-04 19:57 | 43.25417 | 4.83223 | 11487 ft | 356 kts | 121° |
| 2026-05-04 19:57 | 43.24242 | 4.86338 | 10980 ft | 371 kts | 121° |
| 2026-05-04 19:57 | 43.23113 | 4.89339 | 10609 ft | 341 kts | 121° |
| 2026-05-04 19:58 | 43.22147 | 4.92228 | 9848 ft | 329 kts | 112° |
| 2026-05-04 19:58 | 43.22035 | 4.95314 | 8919 ft | 318 kts | 84° |
| 2026-05-04 19:58 | 43.22955 | 4.97914 | 8092 ft | 298 kts | 52° |
| 2026-05-04 19:58 | 43.24652 | 4.99464 | 7293 ft | 297 kts | 20° |
| 2026-05-04 19:59 | 43.26685 | 4.99692 | 6971 ft | 292 kts | 355° |
| 2026-05-04 19:59 | 43.28755 | 4.99406 | 7000 ft | 301 kts | 353° |
| 2026-05-04 19:59 | 43.30832 | 4.99086 | 6988 ft | 300 kts | 352° |
| 2026-05-04 19:59 | 43.32902 | 4.98763 | 6976 ft | 299 kts | 352° |
| 2026-05-04 20:00 | 43.34973 | 4.98440 | 6976 ft | 299 kts | 352° |
| 2026-05-04 20:00 | 43.37077 | 4.98108 | 6578 ft | 308 kts | 352° |
| 2026-05-04 20:00 | 43.39194 | 4.97771 | 6081 ft | 303 kts | 353° |
| 2026-05-04 20:00 | 43.41270 | 4.97424 | 5567 ft | 299 kts | 352° |
| 2026-05-04 20:01 | 43.43324 | 4.97079 | 5071 ft | 295 kts | 353° |
| 2026-05-04 20:01 | 43.45305 | 4.96729 | 4985 ft | 280 kts | 353° |
| 2026-05-04 20:01 | 43.47237 | 4.96372 | 4981 ft | 283 kts | 352° |
| 2026-05-04 20:01 | 43.49197 | 4.95984 | 4981 ft | 286 kts | 349° |
| 2026-05-04 20:02 | 43.50968 | 4.94763 | 4921 ft | 285 kts | 320° |
| 2026-05-04 20:02 | 43.52418 | 4.92908 | 5008 ft | 287 kts | 313° |
| 2026-05-04 20:02 | 43.53836 | 4.90964 | 5003 ft | 288 kts | 312° |
| 2026-05-04 20:02 | 43.55250 | 4.89022 | 5002 ft | 283 kts | 312° |
| 2026-05-04 20:03 | 43.56570 | 4.87220 | 4987 ft | 251 kts | 312° |
| 2026-05-04 20:03 | 43.57774 | 4.85594 | 4968 ft | 235 kts | 312° |
| 2026-05-04 20:03 | 43.58925 | 4.84044 | 4974 ft | 230 kts | 312° |
| 2026-05-04 20:03 | 43.60068 | 4.82508 | 4978 ft | 230 kts | 312° |
| 2026-05-04 20:04 | 43.61218 | 4.80963 | 4979 ft | 232 kts | 312° |
| 2026-05-04 20:04 | 43.62378 | 4.79403 | 4985 ft | 233 kts | 312° |
| 2026-05-04 20:04 | 43.63734 | 4.78123 | 4645 ft | 246 kts | 340° |
| 2026-05-04 20:04 | 43.65407 | 4.78131 | 4197 ft | 237 kts | 21° |
| 2026-05-04 20:05 | 43.66603 | 4.79432 | 3848 ft | 205 kts | 67° |
| 2026-05-04 20:05 | 43.66927 | 4.81177 | 3925 ft | 182 kts | 95° |
| 2026-05-04 20:05 | 43.66806 | 4.82938 | 4048 ft | 191 kts | 103° |
| 2026-05-04 20:05 | 43.66629 | 4.84777 | 4014 ft | 195 kts | 103° |
| 2026-05-04 20:06 | 43.66461 | 4.86627 | 4002 ft | 192 kts | 103° |
| 2026-05-04 20:06 | 43.66185 | 4.88415 | 3953 ft | 189 kts | 116° |
| 2026-05-04 20:06 | 43.65557 | 4.89996 | 3994 ft | 189 kts | 125° |
| 2026-05-04 20:06 | 43.64723 | 4.91387 | 3990 ft | 188 kts | 135° |
| 2026-05-04 20:07 | 43.63822 | 4.92684 | 3999 ft | 189 kts | 136° |
| 2026-05-04 20:07 | 43.62909 | 4.93986 | 4000 ft | 189 kts | 136° |
| 2026-05-04 20:07 | 43.62001 | 4.95298 | 3998 ft | 189 kts | 136° |
| 2026-05-04 20:07 | 43.61087 | 4.96605 | 4001 ft | 189 kts | 136° |
| 2026-05-04 20:08 | 43.60225 | 4.97839 | 3989 ft | 164 kts | 136° |
| 2026-05-04 20:08 | 43.59495 | 4.98887 | 3970 ft | 142 kts | 136° |
| 2026-05-04 20:08 | 43.58828 | 4.99840 | 3972 ft | 136 kts | 136° |
| 2026-05-04 20:08 | 43.58175 | 5.00773 | 3975 ft | 137 kts | 136° |
| 2026-05-04 20:09 | 43.57488 | 5.01765 | 3915 ft | 146 kts | 135° |
| 2026-05-04 20:09 | 43.56773 | 5.02794 | 3504 ft | 145 kts | 135° |
| 2026-05-04 20:09 | 43.56097 | 5.03762 | 3263 ft | 136 kts | 134° |
| 2026-05-04 20:09 | 43.55453 | 5.04685 | 3071 ft | 130 kts | 133° |
| 2026-05-04 20:10 | 43.54856 | 5.05537 | 2886 ft | 119 kts | 133° |
| 2026-05-04 20:10 | 43.54487 | 5.06063 | 2790 ft | 114 kts | 133° |
| 2026-05-04 20:10 | 43.53944 | 5.06838 | 2638 ft | 111 kts | 132° |
| 2026-05-04 20:10 | 43.53408 | 5.07602 | 2510 ft | 112 kts | 131° |
| 2026-05-04 20:11 | 43.52865 | 5.08378 | 2365 ft | 112 kts | 131° |
| 2026-05-04 20:11 | 43.52331 | 5.09138 | 2203 ft | 109 kts | 131° |
| 2026-05-04 20:11 | 43.51638 | 5.10126 | 2009 ft | 109 kts | 130° |
| 2026-05-04 20:11 | 43.51116 | 5.10875 | 1861 ft | 107 kts | 130° |
| 2026-05-04 20:12 | 43.50768 | 5.11371 | 1762 ft | 106 kts | 130° |
| 2026-05-04 20:12 | 43.50261 | 5.12097 | 1618 ft | 105 kts | 129° |
| 2026-05-04 20:12 | 43.49582 | 5.13068 | 1417 ft | 107 kts | 130° |
| 2026-05-04 20:12 | 43.49233 | 5.13566 | 1332 ft | 107 kts | 130° |
| 2026-05-04 20:13 | 43.48708 | 5.14313 | 1186 ft | 111 kts | 131° |
| 2026-05-04 20:13 | 43.48166 | 5.15087 | 1036 ft | 112 kts | 130° |
| 2026-05-04 20:13 | 43.47617 | 5.15871 | 854 ft | 114 kts | 129° |
| 2026-05-04 20:13 | 43.47089 | 5.16625 | 720 ft | 110 kts | 127° |
| 2026-05-04 20:14 | 43.46557 | 5.17388 | 574 ft | 111 kts | 127° |
| 2026-05-04 20:14 | 43.46017 | 5.18155 | 415 ft | 112 kts | 127° |
| 2026-05-04 20:14 | 43.45471 | 5.18924 | 247 ft | 113 kts | 127° |
| 2026-05-04 20:14 | 43.44928 | 5.19713 | 88 ft | 114 kts | 127° |
| 2026-05-04 20:15 | 43.44408 | 5.20471 | 27 ft | 98 kts | 129° |
| 2026-05-04 20:15 | 43.43983 | 5.21073 | 36 ft | 74 kts | 134° |
| 2026-05-04 20:15 | 43.43778 | 5.21356 | 43 ft | 33 kts | 133° |
| 2026-05-04 20:15 | 43.43594 | 5.21615 | 46 ft | 44 kts | 134° |
| 2026-05-04 20:16 | 43.43378 | 5.21922 | 51 ft | 42 kts | 122° |
| 2026-05-04 20:16 | 43.43335 | 5.22176 | 55 ft | 8 kts | 90° |
| 2026-05-04 20:16 | 43.43341 | 5.22223 | 53 ft | 3 kts | 65° |
| 2026-05-04 20:16 | 43.43347 | 5.22241 | 54 ft | 1 kts | 63° |
| 2026-05-04 20:17 | 43.43358 | 5.22258 | 55 ft | 5 kts | 38° |
| 2026-05-04 20:17 | 43.43416 | 5.22274 | 54 ft | 13 kts | 348° |
| 2026-05-04 20:17 | 43.43519 | 5.22201 | 50 ft | 21 kts | 329° |
| 2026-05-04 20:17 | 43.43670 | 5.22082 | 46 ft | 29 kts | 332° |
| 2026-05-04 20:18 | 43.43837 | 5.21904 | 44 ft | 33 kts | 313° |
| 2026-05-04 20:18 | 43.43980 | 5.21679 | 39 ft | 16 kts | 267° |
| 2026-05-04 20:18 | 43.43917 | 5.21537 | 39 ft | 16 kts | 271° |
| 2026-05-04 20:18 | 43.43984 | 5.21405 | 37 ft | 20 kts | 306° |
| 2026-05-04 20:19 | 43.44080 | 5.21249 | 34 ft | 24 kts | 317° |
| 2026-05-04 20:19 | 43.44200 | 5.21201 | 31 ft | 15 kts | 26° |
| 2026-05-04 20:19 | 43.44259 | 5.21273 | 31 ft | 8 kts | 8° |
| 2026-05-04 20:19 | 43.44307 | 5.21258 | 30 ft | 4 kts | 334° |
| 2026-05-04 20:20 | 43.44331 | 5.21245 | 29 ft | 4 kts | 17° |
| 2026-05-04 20:20 | 43.44346 | 5.21276 | 29 ft | 0 kts | 56° |